Time;durP1;ratioP1;P1;durP2;ratioP2;P2;SDS_P1;SDS_P2;PMS_P1;PMS_P2;Temp;Humidity;BMP_temperature;BMP_pressure;BME280_temperature;BME280_humidity;BME280_pressure;Samples;Min_cycle;Max_cycle;Signal;HPM_P1;HPM_P2
2023/10/30 00:00:27;;;;;;;1.87;0.90;;;;;;;13.95;55.97;99694.28;5099451;27;97055;-61
2023/10/30 00:02:53;;;;;;;1.17;0.60;;;;;;;13.98;55.97;99698.00;5098950;27;99505;-60
2023/10/30 00:05:18;;;;;;;1.90;0.80;;;;;;;13.98;55.84;99703.56;5098900;27;96977;-61
2023/10/30 00:07:43;;;;;;;1.63;0.53;;;;;;;13.97;56.03;99702.09;5098518;27;98554;-59
2023/10/30 00:10:09;;;;;;;1.50;0.67;;;;;;;13.98;55.95;99698.00;5098023;27;96956;-60
2023/10/30 00:12:35;;;;;;;2.90;0.70;;;;;;;13.97;55.92;99702.09;5098746;27;96842;-61
2023/10/30 00:15:03;;;;;;;2.30;1.17;;;;;;;13.97;56.00;99702.09;5098319;27;97285;-59
2023/10/30 00:17:30;;;;;;;3.73;0.80;;;;;;;13.96;56.01;99706.91;5098743;27;97776;-60
2023/10/30 00:19:55;;;;;;;1.20;0.50;;;;;;;13.95;55.95;99721.38;5102048;27;97109;-61
2023/10/30 00:22:21;;;;;;;4.17;0.70;;;;;;;13.93;55.60;99716.38;5100525;27;97520;-61
2023/10/30 00:24:46;;;;;;;3.80;0.73;;;;;;;13.92;56.01;99711.38;5098450;27;96917;-61
2023/10/30 00:27:12;;;;;;;1.57;0.63;;;;;;;13.90;55.87;99717.50;5100482;27;102556;-59
2023/10/30 00:29:40;;;;;;;4.40;0.60;;;;;;;13.91;55.81;99715.47;5101877;27;97613;-62
2023/10/30 00:32:06;;;;;;;1.27;0.80;;;;;;;13.90;55.88;99723.06;5102270;27;97082;-60
2023/10/30 00:34:32;;;;;;;0.90;0.53;;;;;;;13.91;55.86;99721.03;5102549;27;98898;-61
2023/10/30 00:36:57;;;;;;;2.17;0.90;;;;;;;13.88;55.83;99722.91;5098094;27;96952;-62
2023/10/30 00:39:22;;;;;;;2.57;0.90;;;;;;;13.85;55.79;99724.00;5099152;27;97013;-59
2023/10/30 00:41:48;;;;;;;5.90;0.87;;;;;;;13.85;55.86;99723.25;5098206;27;96621;-60
2023/10/30 00:44:13;;;;;;;1.10;0.70;;;;;;;13.84;55.86;99724.56;5099768;27;100157;-59
2023/10/30 00:46:39;;;;;;;1.53;0.60;;;;;;;13.82;55.95;99722.34;5082200;27;103242;-60
2023/10/30 00:49:04;;;;;;;1.50;0.80;;;;;;;13.81;55.85;99729.22;5100657;27;97074;-61
2023/10/30 00:51:29;;;;;;;2.20;0.80;;;;;;;13.80;55.77;99732.56;5099454;27;96981;-59
2023/10/30 00:53:54;;;;;;;0.97;0.40;;;;;;;13.78;55.96;99730.31;5100529;27;106813;-60
2023/10/30 00:56:20;;;;;;;4.23;0.90;;;;;;;13.76;55.98;99732.94;5098632;27;103353;-61
2023/10/30 00:58:45;;;;;;;3.70;1.23;;;;;;;13.74;55.95;99736.28;5097798;27;96972;-60
2023/10/30 01:01:12;;;;;;;1.57;0.70;;;;;;;13.74;56.00;99735.53;5101978;27;96643;-61
2023/10/30 01:03:38;;;;;;;1.77;0.63;;;;;;;13.72;55.92;99747.22;5098680;27;97387;-62
2023/10/30 01:06:04;;;;;;;3.23;0.80;;;;;;;13.72;55.90;99752.03;5100238;27;97119;-60
2023/10/30 01:08:29;;;;;;;1.83;0.60;;;;;;;13.70;56.03;99757.41;5100625;27;97053;-60
2023/10/30 01:10:56;;;;;;;0.70;0.50;;;;;;;13.68;56.17;99757.97;5097956;27;97758;-59
2023/10/30 01:13:23;;;;;;;1.20;0.50;;;;;;;13.68;56.04;99771.13;5100289;27;97446;-61
2023/10/30 01:15:52;;;;;;;1.83;0.70;;;;;;;13.66;56.04;99768.19;5098682;27;97302;-61
2023/10/30 01:18:17;;;;;;;3.50;0.60;;;;;;;13.63;56.17;99769.28;5100414;27;96927;-60
2023/10/30 01:20:42;;;;;;;2.10;0.63;;;;;;;13.62;56.24;99765.75;5101430;27;97272;-61
2023/10/30 01:23:08;;;;;;;7.10;0.90;;;;;;;13.61;56.24;99760.75;5098669;27;96858;-61
2023/10/30 01:25:33;;;;;;;3.60;0.90;;;;;;;13.59;56.28;99774.47;5099675;27;97580;-60
2023/10/30 01:27:59;;;;;;;3.70;1.40;;;;;;;13.56;56.34;99775.59;5084658;27;97141;-60
2023/10/30 01:30:24;;;;;;;2.10;0.77;;;;;;;13.55;56.26;99777.66;5098622;27;97146;-61
2023/10/30 01:32:50;;;;;;;1.30;0.60;;;;;;;13.53;56.31;99790.63;5095733;27;98042;-60
2023/10/30 01:35:15;;;;;;;4.60;1.10;;;;;;;13.53;56.22;99771.16;5097803;27;108052;-61
2023/10/30 01:37:42;;;;;;;2.73;0.63;;;;;;;13.52;56.43;99764.13;5099152;27;96804;-60
2023/10/30 01:40:08;;;;;;;0.93;0.60;;;;;;;13.53;56.39;99771.91;5097154;27;97819;-59
2023/10/30 01:42:33;;;;;;;1.97;0.50;;;;;;;13.52;56.45;99766.91;5100314;27;97337;-60
2023/10/30 01:44:59;;;;;;;1.37;0.70;;;;;;;13.53;56.46;99766.34;5096579;27;98360;-61
2023/10/30 01:47:25;;;;;;;4.87;1.27;;;;;;;13.49;56.44;99754.13;5099920;27;97527;-61
2023/10/30 01:49:55;;;;;;;3.00;0.70;;;;;;;13.53;56.40;99765.59;5099314;27;96726;-63
2023/10/30 01:52:22;;;;;;;5.40;0.70;;;;;;;13.49;56.39;99776.38;5097628;27;97212;-60
2023/10/30 01:54:49;;;;;;;3.43;0.80;;;;;;;13.46;56.36;99789.31;5095957;27;98252;-60
2023/10/30 01:57:17;;;;;;;3.23;0.97;;;;;;;13.46;56.55;99785.81;5096577;27;97100;-60
2023/10/30 01:59:43;;;;;;;3.03;0.83;;;;;;;13.46;56.61;99785.81;5093968;27;97004;-60
2023/10/30 02:02:08;;;;;;;2.10;0.80;;;;;;;13.43;56.58;99782.09;5095126;27;97483;-61
2023/10/30 02:04:35;;;;;;;1.93;0.70;;;;;;;13.42;56.47;99777.09;5097314;27;97298;-60
2023/10/30 02:07:02;;;;;;;6.43;0.83;;;;;;;13.43;56.52;99781.34;5099592;27;96812;-61
2023/10/30 02:09:28;;;;;;;1.33;0.60;;;;;;;13.43;56.62;99782.09;5100353;27;96739;-59
2023/10/30 02:11:55;;;;;;;2.60;0.67;;;;;;;13.42;56.77;99788.22;5101280;27;97894;-60
2023/10/30 02:14:20;;;;;;;2.40;0.83;;;;;;;13.38;56.58;99796.94;5100361;27;97249;-62
2023/10/30 02:16:45;;;;;;;3.57;0.70;;;;;;;13.36;56.67;99791.16;5103363;27;97418;-62
2023/10/30 02:19:18;;;;;;;3.97;1.00;;;;;;;13.34;56.74;99795.81;5102530;27;97108;-60
2023/10/30 02:21:43;;;;;;;3.03;0.90;;;;;;;13.33;56.71;99802.66;5100575;27;97832;-60
2023/10/30 02:24:10;;;;;;;4.40;0.70;;;;;;;13.32;56.70;99795.66;5102659;27;99264;-60
2023/10/30 02:26:35;;;;;;;1.93;0.60;;;;;;;13.34;56.72;99798.59;5103855;27;96775;-63
2023/10/30 02:29:02;;;;;;;2.40;0.77;;;;;;;13.33;56.87;99811.75;5103630;27;96905;-62
2023/10/30 02:31:30;;;;;;;2.30;0.80;;;;;;;13.33;56.75;99802.66;5100595;27;96929;-61
2023/10/30 02:33:55;;;;;;;0.87;0.50;;;;;;;13.32;56.93;99798.44;5102063;27;96851;-60
2023/10/30 02:36:21;;;;;;;3.10;1.00;;;;;;;13.31;56.81;99794.91;5102379;27;97216;-65
2023/10/30 02:38:46;;;;;;;1.43;0.60;;;;;;;13.31;56.87;99792.13;5103190;27;96956;-61
2023/10/30 02:41:12;;;;;;;4.47;1.33;;;;;;;13.32;56.78;99792.88;5102550;27;97116;-59
2023/10/30 02:43:37;;;;;;;6.27;0.80;;;;;;;13.27;56.94;99793.78;5099742;27;96650;-62
2023/10/30 02:46:05;;;;;;;3.90;0.97;;;;;;;13.25;57.03;99796.38;5102868;27;97060;-61
2023/10/30 02:48:31;;;;;;;3.10;0.97;;;;;;;13.26;56.96;99792.28;5101354;27;96716;-60
2023/10/30 02:50:59;;;;;;;1.43;0.60;;;;;;;13.24;56.85;99789.31;5102670;27;97865;-59
2023/10/30 02:53:24;;;;;;;1.30;0.63;;;;;;;13.21;56.96;99793.94;5101612;27;113951;-61
2023/10/30 02:55:50;;;;;;;1.33;0.87;;;;;;;13.17;57.13;99790.81;5103638;27;97235;-61
2023/10/30 02:58:15;;;;;;;3.37;1.00;;;;;;;13.16;57.02;99785.81;5099711;27;96857;-60
2023/10/30 03:00:40;;;;;;;4.87;1.53;;;;;;;13.17;57.00;99796.38;5081837;27;113464;-61
2023/10/30 03:03:05;;;;;;;4.00;0.70;;;;;;;13.17;57.07;99796.38;5101033;27;97463;-60
2023/10/30 03:05:31;;;;;;;3.37;0.70;;;;;;;13.18;57.03;99797.13;5101086;27;97200;-62
2023/10/30 03:07:56;;;;;;;3.37;0.77;;;;;;;13.12;57.24;99799.34;5100595;27;97222;-61
2023/10/30 03:10:22;;;;;;;1.63;0.60;;;;;;;13.12;57.11;99802.84;5101478;27;97389;-60
2023/10/30 03:12:47;;;;;;;3.93;0.80;;;;;;;13.12;57.16;99805.63;5103541;27;97101;-61
2023/10/30 03:15:13;;;;;;;1.80;0.70;;;;;;;13.13;57.18;99806.34;5103223;27;97020;-61
2023/10/30 03:17:38;;;;;;;3.50;0.60;;;;;;;13.12;57.19;99813.22;5103787;27;96859;-61
2023/10/30 03:20:07;;;;;;;2.47;0.73;;;;;;;13.11;57.27;99809.69;5101215;27;96954;-61
2023/10/30 03:22:33;;;;;;;3.40;0.73;;;;;;;13.13;57.21;99812.66;5103054;27;97092;-61
2023/10/30 03:24:59;;;;;;;2.10;0.73;;;;;;;13.15;57.13;99821.19;5099975;27;96824;-62
2023/10/30 03:27:24;;;;;;;3.00;0.67;;;;;;;13.13;57.19;99826.53;5103600;27;97189;-61
2023/10/30 03:29:50;;;;;;;4.00;0.93;;;;;;;13.15;57.04;99820.44;5099006;27;97988;-60
2023/10/30 03:32:15;;;;;;;3.00;0.80;;;;;;;13.15;57.24;99812.84;5100991;27;97127;-62
2023/10/30 03:34:41;;;;;;;2.00;0.70;;;;;;;13.17;57.15;99818.59;5105172;27;97123;-61
2023/10/30 03:37:07;;;;;;;1.77;0.53;;;;;;;13.17;57.29;99828.94;5100542;27;97365;-59
2023/10/30 03:39:33;;;;;;;1.70;0.83;;;;;;;13.20;57.06;99822.28;5097815;27;97791;-63
2023/10/30 03:41:58;;;;;;;2.13;0.80;;;;;;;13.18;57.18;99822.09;5101286;27;97344;-61
2023/10/30 03:44:26;;;;;;;5.23;1.00;;;;;;;13.17;57.12;99813.03;5101120;27;97130;-61
2023/10/30 03:46:51;;;;;;;3.87;0.80;;;;;;;13.18;57.31;99830.44;5098013;27;97270;-62
2023/10/30 03:49:17;;;;;;;4.47;0.93;;;;;;;13.18;57.16;99822.84;5100373;27;97462;-60
2023/10/30 03:51:42;;;;;;;3.90;0.70;;;;;;;13.17;57.06;99813.03;5102951;27;110987;-61
2023/10/30 03:54:08;;;;;;;4.73;0.87;;;;;;;13.15;57.04;99814.88;5100440;27;97156;-60
2023/10/30 03:56:34;;;;;;;2.97;0.70;;;;;;;13.15;57.22;99817.66;5100690;27;96732;-61
2023/10/30 03:58:59;;;;;;;2.70;0.77;;;;;;;13.16;57.06;99819.16;5100836;27;97278;-61
2023/10/30 04:01:24;;;;;;;4.97;0.80;;;;;;;13.17;57.16;99817.84;5101749;27;97155;-62
2023/10/30 04:03:50;;;;;;;1.77;0.60;;;;;;;13.17;57.02;99820.63;5098765;27;97187;-62
2023/10/30 04:06:15;;;;;;;1.47;0.70;;;;;;;13.14;56.99;99824.53;5102961;27;97365;-62
2023/10/30 04:08:41;;;;;;;1.30;0.50;;;;;;;13.13;57.08;99818.22;5100568;27;97279;-61
2023/10/30 04:11:12;;;;;;;2.83;0.83;;;;;;;13.15;57.05;99818.41;5097934;27;97272;-61
2023/10/30 04:13:37;;;;;;;3.70;1.17;;;;;;;13.16;57.06;99816.38;5100168;27;96734;-62
2023/10/30 04:16:03;;;;;;;4.90;1.00;;;;;;;13.16;57.02;99810.81;5103169;27;97160;-61
2023/10/30 04:18:28;;;;;;;2.03;0.70;;;;;;;13.14;57.03;99808.59;5099016;27;96727;-62
2023/10/30 04:20:55;;;;;;;2.77;0.93;;;;;;;13.15;57.09;99810.06;5103440;27;97036;-61
2023/10/30 04:23:21;;;;;;;2.63;0.90;;;;;;;13.15;57.10;99809.31;5093799;27;96755;-61
2023/10/30 04:25:46;;;;;;;1.67;0.77;;;;;;;13.17;57.06;99806.72;5101358;27;97184;-62
2023/10/30 04:28:11;;;;;;;5.60;0.80;;;;;;;13.18;56.87;99803.41;5099841;27;108082;-63
2023/10/30 04:30:36;;;;;;;3.20;0.70;;;;;;;13.20;57.07;99811.94;5094606;27;105752;-62
2023/10/30 04:33:02;;;;;;;3.03;1.03;;;;;;;13.16;57.08;99805.25;5098768;27;96955;-62
2023/10/30 04:35:27;;;;;;;2.60;1.00;;;;;;;13.19;56.86;99809.69;5100370;27;97003;-62
2023/10/30 04:37:53;;;;;;;2.70;0.73;;;;;;;13.18;57.05;99805.44;5098082;27;97844;-61
2023/10/30 04:40:18;;;;;;;4.00;1.00;;;;;;;13.20;56.90;99811.19;5097180;27;97268;-63
2023/10/30 04:42:44;;;;;;;2.20;0.80;;;;;;;13.18;56.97;99816.56;5099149;27;96626;-61
2023/10/30 04:45:09;;;;;;;1.77;0.67;;;;;;;13.20;57.04;99813.97;5097838;27;97243;-61
2023/10/30 04:47:35;;;;;;;1.67;0.83;;;;;;;13.18;56.99;99808.97;5098169;27;96951;-62
2023/10/30 04:50:00;;;;;;;3.03;0.70;;;;;;;13.17;56.94;99812.28;5097184;27;98073;-62
2023/10/30 04:52:25;;;;;;;4.10;0.73;;;;;;;13.14;56.92;99824.53;5098236;27;97339;-61
2023/10/30 04:54:51;;;;;;;2.43;0.70;;;;;;;13.11;57.10;99815.25;5097136;27;96660;-61
2023/10/30 04:57:16;;;;;;;1.67;0.90;;;;;;;13.11;57.10;99818.03;5098747;27;97041;-62
2023/10/30 04:59:41;;;;;;;4.60;0.80;;;;;;;13.09;57.03;99817.09;5099450;27;97038;-61
2023/10/30 05:02:07;;;;;;;2.63;1.10;;;;;;;13.09;57.19;99825.44;5095911;27;97095;-61
2023/10/30 05:04:33;;;;;;;1.57;0.80;;;;;;;13.07;57.08;99816.91;5099604;27;97194;-62
2023/10/30 05:06:58;;;;;;;2.17;0.90;;;;;;;13.08;57.16;99854.50;5098913;27;96873;-61
2023/10/30 05:09:24;;;;;;;2.33;0.90;;;;;;;13.07;56.97;99825.25;5097210;27;98345;-61
2023/10/30 05:11:49;;;;;;;1.90;1.03;;;;;;;13.04;57.09;99820.78;5079051;27;97453;-62
2023/10/30 05:14:15;;;;;;;3.10;0.80;;;;;;;13.03;57.12;99833.94;5097346;27;97089;-61
2023/10/30 05:16:40;;;;;;;3.30;0.70;;;;;;;13.01;57.04;99831.00;5097886;27;97581;-62
2023/10/30 05:19:05;;;;;;;1.90;0.87;;;;;;;13.01;57.05;99833.75;5096769;27;97314;-61
2023/10/30 05:21:31;;;;;;;2.10;0.70;;;;;;;13.02;56.99;99834.47;5100312;27;97031;-61
2023/10/30 05:23:56;;;;;;;1.77;0.97;;;;;;;13.01;57.12;99836.53;5097142;27;97661;-60
2023/10/30 05:26:22;;;;;;;5.70;1.07;;;;;;;12.97;57.06;99830.56;5101040;27;97361;-61
2023/10/30 05:28:47;;;;;;;6.97;1.20;;;;;;;12.94;57.05;99837.97;5097741;27;108439;-60
2023/10/30 05:31:12;;;;;;;3.33;1.10;;;;;;;12.90;57.28;99834.81;5097866;27;96969;-61
2023/10/30 05:33:38;;;;;;;3.33;0.93;;;;;;;12.88;57.02;99831.84;5098867;27;97114;-61
2023/10/30 05:36:04;;;;;;;4.40;0.70;;;;;;;12.85;57.26;99838.53;5097891;27;97090;-61
2023/10/30 05:38:29;;;;;;;2.00;0.93;;;;;;;12.83;57.29;99841.09;5097930;27;97149;-61
2023/10/30 05:40:55;;;;;;;3.37;0.90;;;;;;;12.82;57.26;99842.38;5098891;27;97259;-60
2023/10/30 05:43:20;;;;;;;3.50;0.90;;;;;;;12.81;57.37;99840.16;5099182;27;98870;-61
2023/10/30 05:45:47;;;;;;;5.40;1.20;;;;;;;12.77;57.42;99842.56;5106146;27;97569;-60
2023/10/30 05:48:13;;;;;;;4.00;0.93;;;;;;;12.75;57.49;99845.16;5099843;27;96949;-61
2023/10/30 05:50:38;;;;;;;1.13;0.60;;;;;;;12.73;57.53;99839.38;5103524;27;97150;-62
2023/10/30 05:53:03;;;;;;;3.10;0.80;;;;;;;12.69;57.56;99839.75;5102062;27;97357;-61
2023/10/30 05:55:29;;;;;;;3.50;1.37;;;;;;;12.67;57.69;99839.56;5099053;27;97301;-61
2023/10/30 05:57:55;;;;;;;0.90;0.80;;;;;;;12.68;57.69;99837.53;5101970;27;97368;-61
2023/10/30 06:00:21;;;;;;;4.33;0.70;;;;;;;12.68;57.64;99840.31;5101524;27;96775;-61
2023/10/30 06:02:47;;;;;;;3.30;0.93;;;;;;;12.67;57.57;99836.78;5101230;27;96944;-61
2023/10/30 06:05:14;;;;;;;2.80;1.13;;;;;;;12.68;57.64;99837.53;5100587;27;103824;-61
2023/10/30 06:07:41;;;;;;;2.67;1.10;;;;;;;12.66;57.70;99840.13;5100988;27;98787;-61
2023/10/30 06:10:08;;;;;;;2.33;0.83;;;;;;;12.65;57.86;99846.97;5081530;27;97188;-61
2023/10/30 06:12:33;;;;;;;1.87;0.70;;;;;;;12.64;57.76;99839.94;5105261;27;97224;-61
2023/10/30 06:14:58;;;;;;;4.27;0.70;;;;;;;12.65;57.88;99850.47;5102418;27;108393;-61
2023/10/30 06:17:24;;;;;;;2.70;0.93;;;;;;;12.62;57.78;99854.34;5101069;27;98403;-62
2023/10/30 06:19:50;;;;;;;2.03;0.83;;;;;;;12.62;57.76;99853.63;5100009;27;97301;-61
2023/10/30 06:22:15;;;;;;;5.70;1.23;;;;;;;12.62;57.67;99861.94;5098353;27;97339;-61
2023/10/30 06:24:40;;;;;;;6.50;0.90;;;;;;;12.63;57.61;99864.16;5103558;27;97039;-61
2023/10/30 06:27:06;;;;;;;3.30;0.70;;;;;;;12.62;57.80;99865.44;5100848;27;97149;-62
2023/10/30 06:29:32;;;;;;;5.87;0.97;;;;;;;12.62;57.71;99871.00;5082614;27;97292;-61
2023/10/30 06:31:57;;;;;;;4.50;1.37;;;;;;;12.61;57.82;99869.53;5098317;27;97018;-62
2023/10/30 06:34:23;;;;;;;1.47;0.97;;;;;;;12.62;57.76;99873.06;5101101;27;97130;-61
2023/10/30 06:36:48;;;;;;;2.30;1.13;;;;;;;12.61;57.78;99877.84;5101262;27;97013;-63
2023/10/30 06:39:17;;;;;;;2.87;0.93;;;;;;;12.61;57.88;99879.88;5103096;27;97069;-62
2023/10/30 06:41:43;;;;;;;5.97;1.30;;;;;;;12.61;57.85;99880.63;5105139;27;97515;-62
2023/10/30 06:44:08;;;;;;;2.97;0.70;;;;;;;12.61;57.70;99888.94;5101677;27;97180;-61
2023/10/30 06:46:33;;;;;;;4.80;1.00;;;;;;;12.63;57.83;99893.94;5098262;27;106054;-62
2023/10/30 06:48:59;;;;;;;3.13;0.70;;;;;;;12.62;57.79;99895.25;5099751;27;102372;-62
2023/10/30 06:51:24;;;;;;;4.40;1.30;;;;;;;12.64;57.94;99915.59;5099415;27;97692;-61
2023/10/30 06:53:49;;;;;;;2.37;0.80;;;;;;;12.65;57.84;99892.09;5099255;27;97249;-61
2023/10/30 06:56:15;;;;;;;3.63;0.83;;;;;;;12.62;57.87;99890.41;5099821;27;97209;-61
2023/10/30 06:58:40;;;;;;;8.47;0.90;;;;;;;12.64;57.93;99892.66;5100095;27;97638;-61
2023/10/30 07:01:06;;;;;;;2.13;0.93;;;;;;;12.67;57.97;99897.09;5084193;27;97223;-61
2023/10/30 07:03:35;;;;;;;7.27;1.27;;;;;;;12.65;57.90;99891.34;5101821;27;97801;-60
2023/10/30 07:06:00;;;;;;;1.80;0.77;;;;;;;12.67;57.97;99897.84;5099190;27;97416;-60
2023/10/30 07:08:26;;;;;;;3.77;1.17;;;;;;;12.66;57.98;99893.56;5099728;27;97045;-60
2023/10/30 07:10:51;;;;;;;5.53;0.90;;;;;;;12.68;58.04;99893.78;5100330;27;96942;-59
2023/10/30 07:13:17;;;;;;;3.37;0.83;;;;;;;12.67;58.10;99899.88;5098634;27;96674;-59
2023/10/30 07:15:42;;;;;;;4.20;1.20;;;;;;;12.65;58.11;99889.34;5097987;27;97635;-60
2023/10/30 07:18:07;;;;;;;5.40;1.00;;;;;;;12.68;58.12;99902.13;5099485;27;97511;-60
2023/10/30 07:20:33;;;;;;;2.20;0.87;;;;;;;12.69;58.27;99908.38;5086655;27;97054;-60
2023/10/30 07:22:58;;;;;;;1.63;0.60;;;;;;;12.69;58.29;99911.16;5101380;27;99129;-61
2023/10/30 07:25:23;;;;;;;5.37;1.40;;;;;;;12.69;58.10;99919.50;5099088;27;106816;-61
2023/10/30 07:27:49;;;;;;;3.20;0.97;;;;;;;12.67;58.08;99919.31;5098836;27;97158;-61
2023/10/30 07:30:14;;;;;;;2.70;0.90;;;;;;;12.69;58.32;99920.25;5099574;27;96791;-61
2023/10/30 07:32:40;;;;;;;4.67;1.13;;;;;;;12.70;58.35;99918.97;5099102;27;97193;-61
2023/10/30 07:35:06;;;;;;;1.20;0.50;;;;;;;12.69;58.39;99933.38;5097028;27;96791;-61
2023/10/30 07:37:33;;;;;;;4.00;0.90;;;;;;;12.73;58.42;99920.63;5100458;27;96746;-61
2023/10/30 07:39:58;;;;;;;2.40;0.77;;;;;;;12.74;58.42;99918.59;5100227;27;96961;-61
2023/10/30 07:42:23;;;;;;;2.53;1.10;;;;;;;12.75;58.42;99912.50;5099592;27;97021;-61
2023/10/30 07:44:48;;;;;;;2.13;0.80;;;;;;;12.73;58.50;99923.41;5099968;27;96607;-61
2023/10/30 07:47:14;;;;;;;2.73;1.13;;;;;;;12.74;58.49;99921.38;5098982;27;97007;-59
2023/10/30 07:49:39;;;;;;;1.17;0.77;;;;;;;12.74;58.54;99922.13;5100780;27;97328;-59
2023/10/30 07:52:06;;;;;;;2.90;1.17;;;;;;;12.77;58.47;99925.84;5099338;27;97742;-59
2023/10/30 07:54:31;;;;;;;2.07;0.70;;;;;;;12.78;58.63;99941.19;5101198;27;97336;-59
2023/10/30 07:56:57;;;;;;;5.27;1.10;;;;;;;12.78;58.46;99944.72;5100399;27;97000;-59
2023/10/30 07:59:22;;;;;;;2.30;0.97;;;;;;;12.77;58.50;99936.94;5100868;27;97155;-59
2023/10/30 08:01:48;;;;;;;2.97;0.80;;;;;;;12.75;58.64;99940.25;5099133;27;97066;-59
2023/10/30 08:04:14;;;;;;;9.03;1.10;;;;;;;12.73;58.65;99940.06;5098897;27;99264;-59
2023/10/30 08:06:39;;;;;;;5.53;1.03;;;;;;;12.70;58.63;99948.75;5100351;27;97628;-60
2023/10/30 08:09:05;;;;;;;3.97;1.27;;;;;;;12.64;58.67;99940.56;5099586;27;97424;-60
2023/10/30 08:11:30;;;;;;;1.63;0.80;;;;;;;12.60;58.68;99933.88;5081785;27;98453;-60
2023/10/30 08:13:55;;;;;;;2.87;1.00;;;;;;;12.56;58.74;99934.25;5079065;27;97361;-60
2023/10/30 08:16:21;;;;;;;3.97;1.20;;;;;;;12.53;58.81;99940.88;5096883;27;97131;-59
2023/10/30 08:18:46;;;;;;;6.90;1.13;;;;;;;12.50;58.90;99944.00;5101392;27;97383;-59
2023/10/30 08:21:13;;;;;;;4.87;0.97;;;;;;;12.49;58.97;99946.03;5099471;27;96777;-59
2023/10/30 08:23:39;;;;;;;4.20;1.00;;;;;;;12.46;58.84;99947.16;5102904;27;97440;-60
2023/10/30 08:26:07;;;;;;;6.13;0.80;;;;;;;12.45;58.92;99940.09;5098920;27;97533;-60
2023/10/30 08:28:34;;;;;;;5.10;0.90;;;;;;;12.44;58.91;99935.84;5099807;27;97078;-60
2023/10/30 08:30:59;;;;;;;6.33;0.80;;;;;;;12.43;59.00;99939.16;5098353;27;98563;-61
2023/10/30 08:33:24;;;;;;;1.87;0.70;;;;;;;12.41;58.97;99945.25;5099051;27;100077;-63
2023/10/30 08:35:50;;;;;;;4.07;1.33;;;;;;;12.44;59.12;99935.09;5101633;27;97106;-61
2023/10/30 08:38:15;;;;;;;6.77;1.60;;;;;;;12.45;59.02;99950.44;5099060;27;97113;-63
2023/10/30 08:40:41;;;;;;;1.80;0.80;;;;;;;12.50;59.10;99964.19;5099957;27;97171;-63
2023/10/30 08:43:07;;;;;;;4.10;0.97;;;;;;;12.54;59.22;99975.66;5098753;27;96824;-62
2023/10/30 08:45:32;;;;;;;4.77;1.23;;;;;;;12.59;59.15;99977.56;5102715;27;97071;-61
2023/10/30 08:47:57;;;;;;;4.30;1.00;;;;;;;12.64;59.04;99971.09;5101646;27;97546;-61
2023/10/30 08:50:23;;;;;;;2.83;0.70;;;;;;;12.68;59.01;99973.53;5095088;27;96983;-61
2023/10/30 08:52:48;;;;;;;1.90;0.90;;;;;;;12.74;59.03;99972.06;5099483;27;97366;-63
2023/10/30 08:55:14;;;;;;;4.03;0.87;;;;;;;12.80;59.05;99971.91;5100839;27;97161;-61
2023/10/30 08:57:39;;;;;;;1.63;0.80;;;;;;;12.86;58.95;99967.69;5102736;27;97364;-63
2023/10/30 09:00:06;;;;;;;2.20;0.83;;;;;;;12.90;58.88;99973.63;5098765;27;97252;-61
2023/10/30 09:02:32;;;;;;;2.20;0.97;;;;;;;12.92;58.84;99973.81;5096442;27;97517;-62
2023/10/30 09:04:58;;;;;;;4.43;1.00;;;;;;;12.95;58.83;99978.28;5098541;27;96958;-62
2023/10/30 09:07:23;;;;;;;3.63;1.03;;;;;;;13.01;58.79;99978.16;5096320;27;97163;-61
2023/10/30 09:09:48;;;;;;;5.00;0.80;;;;;;;13.03;58.75;99983.91;5095671;27;97339;-61
2023/10/30 09:12:14;;;;;;;4.23;1.07;;;;;;;13.07;58.84;99975.19;5096538;27;97100;-61
2023/10/30 09:14:39;;;;;;;3.37;0.70;;;;;;;13.12;58.81;99968.75;5099942;27;97151;-60
2023/10/30 09:17:08;;;;;;;3.23;1.00;;;;;;;13.16;58.82;99969.88;5084600;27;97182;-61
2023/10/30 09:19:34;;;;;;;5.33;0.90;;;;;;;13.20;58.76;99967.47;5097755;27;98945;-62
2023/10/30 09:21:59;;;;;;;2.83;1.27;;;;;;;13.25;58.50;99986.00;5099105;27;98250;-61
2023/10/30 09:24:25;;;;;;;2.10;0.80;;;;;;;13.28;58.59;99973.78;5099256;27;96751;-62
2023/10/30 09:26:51;;;;;;;2.03;0.63;;;;;;;13.33;58.50;99981.22;5096540;27;96928;-61
2023/10/30 09:29:17;;;;;;;2.40;0.70;;;;;;;13.38;58.57;99982.34;5094035;27;98404;-60
2023/10/30 09:31:44;;;;;;;1.50;0.83;;;;;;;13.42;58.51;99986.25;5099123;27;97462;-60
2023/10/30 09:34:10;;;;;;;2.10;0.90;;;;;;;13.50;58.50;99980.69;5099747;27;97065;-60
2023/10/30 09:36:35;;;;;;;3.73;0.70;;;;;;;13.53;58.29;99971.25;5098321;27;97173;-59
2023/10/30 09:39:00;;;;;;;1.80;0.80;;;;;;;13.55;58.49;99985.34;5098470;27;97494;-60
2023/10/30 09:41:28;;;;;;;2.57;0.90;;;;;;;13.57;58.31;99977.19;5096865;27;98486;-59
2023/10/30 09:43:54;;;;;;;1.47;0.60;;;;;;;13.64;58.25;99985.53;5099085;27;97520;-59
2023/10/30 09:46:28;;;;;;;4.20;0.60;;;;;;;13.70;58.01;99988.88;5096235;27;97033;-61
2023/10/30 09:48:55;;;;;;;1.57;0.70;;;;;;;13.77;58.19;99986.66;5080007;27;100126;-60
2023/10/30 09:51:21;;;;;;;3.37;0.90;;;;;;;13.84;58.14;99988.72;5093043;27;97555;-60
2023/10/30 09:53:47;;;;;;;2.87;1.40;;;;;;;13.90;57.93;99992.78;5099302;27;97052;-61
2023/10/30 09:56:13;;;;;;;3.70;1.23;;;;;;;14.00;58.05;99998.53;5098211;27;96680;-61
2023/10/30 09:58:39;;;;;;;4.00;0.97;;;;;;;14.05;57.84;100011.53;5097640;27;97964;-60
2023/10/30 10:01:05;;;;;;;6.57;1.27;;;;;;;14.12;57.84;99992.09;5096752;27;96858;-60
2023/10/30 10:03:31;;;;;;;6.87;1.20;;;;;;;14.18;57.81;100003.75;5095203;27;96857;-59
2023/10/30 10:05:57;;;;;;;3.13;1.10;;;;;;;14.22;57.74;99995.78;5098658;27;97407;-60
2023/10/30 10:08:23;;;;;;;2.50;0.80;;;;;;;14.26;57.62;99993.34;5095633;27;99295;-60
2023/10/30 10:10:59;;;;;;;2.50;0.80;;;;;;;14.36;57.47;99996.31;5105831;27;96578;-60
2023/10/30 10:13:25;;;;;;;3.97;0.80;;;;;;;14.37;57.33;99990.19;5101189;27;97012;-60
2023/10/30 10:15:52;;;;;;;3.10;1.03;;;;;;;14.43;57.42;99982.38;5099894;27;96935;-60
2023/10/30 10:18:28;;;;;;;1.97;0.80;;;;;;;14.48;56.71;99989.81;5099861;27;97490;-62
2023/10/30 10:20:55;;;;;;;3.87;0.90;;;;;;;14.54;57.05;99994.44;5102204;27;99167;-62
2023/10/30 10:23:21;;;;;;;4.43;1.33;;;;;;;14.60;57.13;99981.81;5094403;27;97276;-61
2023/10/30 10:25:55;;;;;;;2.60;0.97;;;;;;;14.70;56.75;99988.25;5099183;27;97463;-62
2023/10/30 10:28:21;;;;;;;1.00;0.63;;;;;;;14.75;56.80;99992.91;5093270;27;97375;-62
2023/10/30 10:30:47;;;;;;;3.30;1.17;;;;;;;14.81;56.96;99993.44;5109897;27;97479;-60
2023/10/30 10:33:12;;;;;;;1.70;0.70;;;;;;;14.85;56.77;99990.25;5102368;27;97355;-62
2023/10/30 10:35:40;;;;;;;2.37;1.10;;;;;;;14.90;56.50;99992.84;5102641;27;97004;-61
2023/10/30 10:38:09;;;;;;;5.43;1.10;;;;;;;14.94;56.47;99992.44;5098002;27;98021;-61
2023/10/30 10:40:38;;;;;;;4.70;1.20;;;;;;;14.96;56.81;99987.09;5113029;27;97689;-61
2023/10/30 10:43:06;;;;;;;2.30;0.80;;;;;;;15.00;56.64;99987.47;5103607;27;96940;-60
2023/10/30 10:45:32;;;;;;;3.30;0.93;;;;;;;15.03;56.26;99981.50;5112906;27;96786;-61
2023/10/30 10:47:57;;;;;;;2.47;0.77;;;;;;;15.08;56.35;99982.59;5103271;27;97224;-60
2023/10/30 10:50:23;;;;;;;1.93;0.70;;;;;;;15.11;56.21;99987.00;5102348;27;97140;-60
2023/10/30 10:52:51;;;;;;;3.40;1.30;;;;;;;15.13;56.36;99984.44;5103239;27;97045;-60
2023/10/30 10:55:22;;;;;;;2.97;1.33;;;;;;;15.24;56.23;99986.03;5104646;27;97231;-60
2023/10/30 10:58:04;;;;;;;4.03;0.97;;;;;;;15.32;55.86;99984.69;5100559;27;97401;-60
2023/10/30 11:00:31;;;;;;;2.73;1.40;;;;;;;15.42;55.98;99982.78;5101614;27;97213;-60
2023/10/30 11:03:04;;;;;;;6.20;0.90;;;;;;;15.51;55.58;99976.59;5108207;27;96948;-61
2023/10/30 11:05:30;;;;;;;4.60;1.37;;;;;;;15.52;55.51;99964.13;5108822;27;97202;-61
2023/10/30 11:08:07;;;;;;;3.73;0.87;;;;;;;15.57;55.43;99968.00;5115333;27;97472;-61
2023/10/30 11:10:37;;;;;;;2.20;0.60;;;;;;;15.61;55.45;99960.00;5104261;27;96824;-61
2023/10/30 11:13:16;;;;;;;2.03;0.90;;;;;;;15.68;55.22;99948.03;5101495;27;96967;-60
2023/10/30 11:15:49;;;;;;;4.50;1.17;;;;;;;15.80;55.21;99944.22;5108531;27;96718;-60
2023/10/30 11:18:16;;;;;;;3.33;0.70;;;;;;;15.90;55.21;99947.88;5100178;27;98996;-60
2023/10/30 11:20:42;;;;;;;1.70;0.93;;;;;;;16.01;55.08;99951.50;5098515;27;98754;-60
2023/10/30 11:23:18;;;;;;;3.47;1.30;;;;;;;16.21;54.77;99939.97;5101683;27;96973;-60
2023/10/30 11:25:54;;;;;;;9.00;1.10;;;;;;;16.43;54.54;99943.84;5106480;27;96727;-60